sensor_id;sensor_type;location;lat;lon;timestamp;pressure;altitude;pressure_sealevel;temperature;humidity
21980;BME280;11154;48.558;9.234;2024-02-23T00:00:37;95591.66;;;12.50;76.35
21980;BME280;11154;48.558;9.234;2024-02-23T00:02:39;95599.66;;;12.50;76.51
21980;BME280;11154;48.558;9.234;2024-02-23T00:04:40;95606.22;;;12.47;76.99
21980;BME280;11154;48.558;9.234;2024-02-23T00:06:42;95603.78;;;12.46;76.56
21980;BME280;11154;48.558;9.234;2024-02-23T00:08:45;95619.34;;;12.49;77.06
21980;BME280;11154;48.558;9.234;2024-02-23T00:10:47;95614.84;;;12.49;77.87
21980;BME280;11154;48.558;9.234;2024-02-23T00:12:48;95618.09;;;12.51;77.95
21980;BME280;11154;48.558;9.234;2024-02-23T00:14:49;95615.63;;;12.50;77.94
21980;BME280;11154;48.558;9.234;2024-02-23T00:16:51;95631.44;;;12.51;78.29
21980;BME280;11154;48.558;9.234;2024-02-23T00:18:52;95642.53;;;12.48;78.45
21980;BME280;11154;48.558;9.234;2024-02-23T00:20:54;95662.84;;;12.43;77.15
21980;BME280;11154;48.558;9.234;2024-02-23T00:22:56;95665.75;;;12.41;77.73
21980;BME280;11154;48.558;9.234;2024-02-23T00:24:58;95654.69;;;12.38;78.04
21980;BME280;11154;48.558;9.234;2024-02-23T00:27:00;95649.81;;;12.35;76.93
21980;BME280;11154;48.558;9.234;2024-02-23T00:29:02;95658.00;;;12.33;77.36
21980;BME280;11154;48.558;9.234;2024-02-23T00:31:04;95658.47;;;12.30;77.38
21980;BME280;11154;48.558;9.234;2024-02-23T00:33:06;95674.69;;;12.29;78.19
21980;BME280;11154;48.558;9.234;2024-02-23T00:35:07;95681.41;;;12.31;78.33
21980;BME280;11154;48.558;9.234;2024-02-23T00:37:09;95671.16;;;12.35;78.53
21980;BME280;11154;48.558;9.234;2024-02-23T00:39:11;95680.38;;;12.32;77.98
21980;BME280;11154;48.558;9.234;2024-02-23T00:41:13;95682.44;;;12.30;77.53
21980;BME280;11154;48.558;9.234;2024-02-23T00:43:14;95684.72;;;12.27;76.86
21980;BME280;11154;48.558;9.234;2024-02-23T00:45:16;95681.06;;;12.22;75.80
21980;BME280;11154;48.558;9.234;2024-02-23T00:47:17;95681.50;;;12.19;75.91
21980;BME280;11154;48.558;9.234;2024-02-23T00:49:19;95680.91;;;12.17;76.13
21980;BME280;11154;48.558;9.234;2024-02-23T00:51:21;95685.03;;;12.13;75.44
21980;BME280;11154;48.558;9.234;2024-02-23T00:53:21;95695.91;;;12.11;75.37
21980;BME280;11154;48.558;9.234;2024-02-23T00:55:23;95696.56;;;12.07;75.14
21980;BME280;11154;48.558;9.234;2024-02-23T00:57:27;95698.00;;;12.03;74.98
21980;BME280;11154;48.558;9.234;2024-02-23T00:59:30;95713.59;;;11.99;75.49
21980;BME280;11154;48.558;9.234;2024-02-23T01:01:31;95707.47;;;11.99;75.14
21980;BME280;11154;48.558;9.234;2024-02-23T01:03:33;95695.41;;;11.96;75.04
21980;BME280;11154;48.558;9.234;2024-02-23T01:05:34;95705.44;;;11.94;74.78
21980;BME280;11154;48.558;9.234;2024-02-23T01:07:37;95700.56;;;11.91;75.07
21980;BME280;11154;48.558;9.234;2024-02-23T01:09:39;95716.94;;;11.88;74.80
21980;BME280;11154;48.558;9.234;2024-02-23T01:11:40;95696.66;;;11.87;74.31
21980;BME280;11154;48.558;9.234;2024-02-23T01:13:42;95697.69;;;11.86;74.25
21980;BME280;11154;48.558;9.234;2024-02-23T01:15:44;95689.53;;;11.81;74.17
21980;BME280;11154;48.558;9.234;2024-02-23T01:17:45;95674.59;;;11.80;74.57
21980;BME280;11154;48.558;9.234;2024-02-23T01:19:46;95668.69;;;11.78;74.48
21980;BME280;11154;48.558;9.234;2024-02-23T01:21:48;95676.66;;;11.78;73.87
21980;BME280;11154;48.558;9.234;2024-02-23T01:23:56;95684.44;;;11.80;74.38
21980;BME280;11154;48.558;9.234;2024-02-23T01:25:58;95681.78;;;11.73;73.06
21980;BME280;11154;48.558;9.234;2024-02-23T01:28:00;95692.66;;;11.72;73.32
21980;BME280;11154;48.558;9.234;2024-02-23T01:30:04;95699.44;;;11.68;73.47
21980;BME280;11154;48.558;9.234;2024-02-23T01:32:05;95697.63;;;11.62;73.36
21980;BME280;11154;48.558;9.234;2024-02-23T01:34:07;95705.22;;;11.58;73.32
21980;BME280;11154;48.558;9.234;2024-02-23T01:36:08;95696.84;;;11.55;73.14
21980;BME280;11154;48.558;9.234;2024-02-23T01:38:10;95698.91;;;11.53;72.74
21980;BME280;11154;48.558;9.234;2024-02-23T01:40:12;95700.75;;;11.52;72.72
21980;BME280;11154;48.558;9.234;2024-02-23T01:42:13;95695.44;;;11.52;73.45
21980;BME280;11154;48.558;9.234;2024-02-23T01:44:15;95707.72;;;11.53;74.09
21980;BME280;11154;48.558;9.234;2024-02-23T01:46:18;95703.38;;;11.59;75.96
21980;BME280;11154;48.558;9.234;2024-02-23T01:48:21;95707.44;;;11.61;75.93
21980;BME280;11154;48.558;9.234;2024-02-23T01:50:22;95699.06;;;11.58;73.90
21980;BME280;11154;48.558;9.234;2024-02-23T01:52:23;95691.94;;;11.52;73.14
21980;BME280;11154;48.558;9.234;2024-02-23T01:54:25;95690.91;;;11.53;72.05
21980;BME280;11154;48.558;9.234;2024-02-23T01:56:29;95693.56;;;11.53;72.47
21980;BME280;11154;48.558;9.234;2024-02-23T01:58:30;95695.00;;;11.49;72.92
21980;BME280;11154;48.558;9.234;2024-02-23T02:00:35;95658.38;;;10.81;73.35
21980;BME280;11154;48.558;9.234;2024-02-23T02:02:38;95658.13;;;9.47;82.94
21980;BME280;11154;48.558;9.234;2024-02-23T02:04:40;95665.28;;;8.94;86.09
21980;BME280;11154;48.558;9.234;2024-02-23T02:06:42;95669.44;;;8.75;89.84
21980;BME280;11154;48.558;9.234;2024-02-23T02:08:45;95666.91;;;8.61;90.61
21980;BME280;11154;48.558;9.234;2024-02-23T02:10:47;95679.31;;;8.54;91.60
21980;BME280;11154;48.558;9.234;2024-02-23T02:12:50;95677.00;;;8.45;91.57
21980;BME280;11154;48.558;9.234;2024-02-23T02:14:51;95688.03;;;8.48;92.83
21980;BME280;11154;48.558;9.234;2024-02-23T02:16:53;95686.78;;;8.44;93.57
21980;BME280;11154;48.558;9.234;2024-02-23T02:18:56;95689.44;;;8.44;93.76
21980;BME280;11154;48.558;9.234;2024-02-23T02:20:57;95677.84;;;8.45;93.80
21980;BME280;11154;48.558;9.234;2024-02-23T02:22:59;95689.22;;;8.46;93.66
21980;BME280;11154;48.558;9.234;2024-02-23T02:25:01;95696.78;;;8.49;94.22
21980;BME280;11154;48.558;9.234;2024-02-23T02:27:01;95691.09;;;8.52;94.26
21980;BME280;11154;48.558;9.234;2024-02-23T02:29:03;95683.78;;;8.54;94.28
21980;BME280;11154;48.558;9.234;2024-02-23T02:31:05;95682.59;;;8.56;94.17
21980;BME280;11154;48.558;9.234;2024-02-23T02:33:06;95681.56;;;8.57;94.43
21980;BME280;11154;48.558;9.234;2024-02-23T02:35:10;95673.38;;;8.52;94.74
21980;BME280;11154;48.558;9.234;2024-02-23T02:37:12;95689.25;;;8.52;94.94
21980;BME280;11154;48.558;9.234;2024-02-23T02:39:13;95685.81;;;8.52;94.87
21980;BME280;11154;48.558;9.234;2024-02-23T02:41:17;95688.81;;;8.49;95.74
21980;BME280;11154;48.558;9.234;2024-02-23T02:43:18;95690.88;;;8.47;96.07
21980;BME280;11154;48.558;9.234;2024-02-23T02:45:20;95683.94;;;8.46;95.83
21980;BME280;11154;48.558;9.234;2024-02-23T02:47:22;95695.53;;;8.45;96.30
21980;BME280;11154;48.558;9.234;2024-02-23T02:49:24;95687.59;;;8.45;97.13
21980;BME280;11154;48.558;9.234;2024-02-23T02:51:27;95686.94;;;8.43;96.79
21980;BME280;11154;48.558;9.234;2024-02-23T02:53:29;95683.50;;;8.42;96.65
21980;BME280;11154;48.558;9.234;2024-02-23T02:55:30;95690.03;;;8.46;95.85
21980;BME280;11154;48.558;9.234;2024-02-23T02:57:32;95686.59;;;8.46;95.68
21980;BME280;11154;48.558;9.234;2024-02-23T02:59:33;95685.16;;;8.50;96.04
21980;BME280;11154;48.558;9.234;2024-02-23T03:01:35;95679.06;;;8.49;95.63
21980;BME280;11154;48.558;9.234;2024-02-23T03:03:37;95678.50;;;8.54;95.72
21980;BME280;11154;48.558;9.234;2024-02-23T03:05:38;95680.72;;;8.50;95.77
21980;BME280;11154;48.558;9.234;2024-02-23T03:07:40;95685.16;;;8.50;95.84
21980;BME280;11154;48.558;9.234;2024-02-23T03:09:42;95686.81;;;8.51;96.07
21980;BME280;11154;48.558;9.234;2024-02-23T03:11:42;95694.75;;;8.51;95.78
21980;BME280;11154;48.558;9.234;2024-02-23T03:13:44;95687.66;;;8.51;95.32
21980;BME280;11154;48.558;9.234;2024-02-23T03:15:46;95673.00;;;8.55;94.92
21980;BME280;11154;48.558;9.234;2024-02-23T03:17:47;95675.28;;;8.58;95.20
21980;BME280;11154;48.558;9.234;2024-02-23T03:19:49;95694.19;;;8.55;95.29
21980;BME280;11154;48.558;9.234;2024-02-23T03:21:51;95693.75;;;8.52;95.53
21980;BME280;11154;48.558;9.234;2024-02-23T03:23:54;95679.31;;;8.54;94.56
21980;BME280;11154;48.558;9.234;2024-02-23T03:25:56;95683.59;;;8.55;94.69
21980;BME280;11154;48.558;9.234;2024-02-23T03:27:57;95669.34;;;8.56;94.34
21980;BME280;11154;48.558;9.234;2024-02-23T03:29:59;95669.72;;;8.53;94.34
21980;BME280;11154;48.558;9.234;2024-02-23T03:32:00;95679.50;;;8.53;93.69
21980;BME280;11154;48.558;9.234;2024-02-23T03:34:02;95690.13;;;8.59;94.40
21980;BME280;11154;48.558;9.234;2024-02-23T03:36:04;95699.47;;;8.55;94.51
21980;BME280;11154;48.558;9.234;2024-02-23T03:38:05;95679.94;;;8.56;94.13
21980;BME280;11154;48.558;9.234;2024-02-23T03:40:09;95686.88;;;8.57;94.64
21980;BME280;11154;48.558;9.234;2024-02-23T03:42:11;95696.03;;;8.55;94.40
21980;BME280;11154;48.558;9.234;2024-02-23T03:44:13;95703.56;;;8.58;94.24
21980;BME280;11154;48.558;9.234;2024-02-23T03:46:14;95716.38;;;8.54;93.79
21980;BME280;11154;48.558;9.234;2024-02-23T03:48:16;95720.88;;;8.54;93.20
21980;BME280;11154;48.558;9.234;2024-02-23T03:50:18;95719.25;;;8.59;93.52
21980;BME280;11154;48.558;9.234;2024-02-23T03:52:20;95712.97;;;8.60;93.44
21980;BME280;11154;48.558;9.234;2024-02-23T03:54:21;95686.88;;;8.57;93.71
21980;BME280;11154;48.558;9.234;2024-02-23T03:56:24;95696.19;;;8.53;93.31
21980;BME280;11154;48.558;9.234;2024-02-23T03:58:26;95675.84;;;8.54;93.55
21980;BME280;11154;48.558;9.234;2024-02-23T04:00:27;95711.31;;;8.86;92.88
21980;BME280;11154;48.558;9.234;2024-02-23T04:02:29;95722.53;;;9.88;88.89
21980;BME280;11154;48.558;9.234;2024-02-23T04:04:30;95715.66;;;10.26;86.07
21980;BME280;11154;48.558;9.234;2024-02-23T04:06:31;95724.66;;;10.51;83.38
21980;BME280;11154;48.558;9.234;2024-02-23T04:08:33;95729.34;;;10.75;80.65
21980;BME280;11154;48.558;9.234;2024-02-23T04:10:35;95721.75;;;10.97;79.27
21980;BME280;11154;48.558;9.234;2024-02-23T04:12:38;95718.66;;;11.20;76.26
21980;BME280;11154;48.558;9.234;2024-02-23T04:14:39;95724.09;;;11.38;74.97
21980;BME280;11154;48.558;9.234;2024-02-23T04:16:41;95726.72;;;11.50;73.25
21980;BME280;11154;48.558;9.234;2024-02-23T04:18:43;95734.28;;;11.60;72.75
21980;BME280;11154;48.558;9.234;2024-02-23T04:20:44;95726.06;;;11.68;72.10
21980;BME280;11154;48.558;9.234;2024-02-23T04:22:46;95720.88;;;11.79;70.87
21980;BME280;11154;48.558;9.234;2024-02-23T04:24:46;95716.94;;;11.88;70.43
21980;BME280;11154;48.558;9.234;2024-02-23T04:26:48;95706.69;;;11.92;68.98
21980;BME280;11154;48.558;9.234;2024-02-23T04:28:51;95706.84;;;11.97;67.93
21980;BME280;11154;48.558;9.234;2024-02-23T04:30:52;95698.44;;;12.00;67.95
21980;BME280;11154;48.558;9.234;2024-02-23T04:32:53;95701.69;;;12.02;67.67
21980;BME280;11154;48.558;9.234;2024-02-23T04:34:55;95705.19;;;12.02;67.42
21980;BME280;11154;48.558;9.234;2024-02-23T04:36:56;95712.34;;;12.02;68.14
21980;BME280;11154;48.558;9.234;2024-02-23T04:38:58;95708.25;;;12.06;67.87
21980;BME280;11154;48.558;9.234;2024-02-23T04:41:03;95707.78;;;12.09;67.87
21980;BME280;11154;48.558;9.234;2024-02-23T04:43:05;95704.09;;;12.10;67.12
21980;BME280;11154;48.558;9.234;2024-02-23T04:45:08;95688.13;;;12.10;67.05
21980;BME280;11154;48.558;9.234;2024-02-23T04:47:10;95689.53;;;12.12;66.12
21980;BME280;11154;48.558;9.234;2024-02-23T04:49:11;95704.34;;;12.08;65.92
21980;BME280;11154;48.558;9.234;2024-02-23T04:51:13;95700.09;;;12.01;65.68
21980;BME280;11154;48.558;9.234;2024-02-23T04:53:14;95704.19;;;11.97;65.49
21980;BME280;11154;48.558;9.234;2024-02-23T04:55:16;95694.78;;;11.94;64.93
21980;BME280;11154;48.558;9.234;2024-02-23T04:57:18;95693.16;;;11.93;65.20
21980;BME280;11154;48.558;9.234;2024-02-23T04:59:19;95697.66;;;11.93;64.22
21980;BME280;11154;48.558;9.234;2024-02-23T05:01:22;95698.69;;;11.92;64.56
21980;BME280;11154;48.558;9.234;2024-02-23T05:03:24;95696.03;;;11.92;64.61
21980;BME280;11154;48.558;9.234;2024-02-23T05:05:24;95702.38;;;11.91;64.18
21980;BME280;11154;48.558;9.234;2024-02-23T05:07:26;95705.03;;;11.91;64.90
21980;BME280;11154;48.558;9.234;2024-02-23T05:09:27;95699.50;;;11.92;65.09
21980;BME280;11154;48.558;9.234;2024-02-23T05:11:29;95699.88;;;11.96;67.06
21980;BME280;11154;48.558;9.234;2024-02-23T05:13:31;95712.56;;;12.00;67.19
21980;BME280;11154;48.558;9.234;2024-02-23T05:15:32;95717.94;;;11.94;65.79
21980;BME280;11154;48.558;9.234;2024-02-23T05:17:35;95719.00;;;11.86;65.24
21980;BME280;11154;48.558;9.234;2024-02-23T05:19:37;95712.09;;;11.79;64.75
21980;BME280;11154;48.558;9.234;2024-02-23T05:21:38;95713.53;;;11.75;64.83
21980;BME280;11154;48.558;9.234;2024-02-23T05:23:40;95709.25;;;11.74;65.39
21980;BME280;11154;48.558;9.234;2024-02-23T05:25:42;95711.75;;;11.69;65.11
21980;BME280;11154;48.558;9.234;2024-02-23T05:27:43;95708.47;;;11.67;64.99
21980;BME280;11154;48.558;9.234;2024-02-23T05:29:45;95721.13;;;11.71;65.07
21980;BME280;11154;48.558;9.234;2024-02-23T05:31:48;95727.25;;;11.72;65.03
21980;BME280;11154;48.558;9.234;2024-02-23T05:33:52;95717.88;;;11.69;65.28
21980;BME280;11154;48.558;9.234;2024-02-23T05:35:53;95722.56;;;11.74;64.78
21980;BME280;11154;48.558;9.234;2024-02-23T05:37:54;95726.00;;;11.81;64.66
21980;BME280;11154;48.558;9.234;2024-02-23T05:39:56;95724.31;;;11.86;64.06
21980;BME280;11154;48.558;9.234;2024-02-23T05:42:00;95727.38;;;11.90;64.21
21980;BME280;11154;48.558;9.234;2024-02-23T05:44:02;95734.97;;;11.93;63.89
21980;BME280;11154;48.558;9.234;2024-02-23T05:46:05;95735.75;;;11.93;64.11
21980;BME280;11154;48.558;9.234;2024-02-23T05:48:07;95730.25;;;11.95;63.07
21980;BME280;11154;48.558;9.234;2024-02-23T05:50:10;95733.50;;;11.97;63.04
21980;BME280;11154;48.558;9.234;2024-02-23T05:52:12;95741.06;;;12.00;63.07
21980;BME280;11154;48.558;9.234;2024-02-23T05:54:15;95734.31;;;11.97;61.89
21980;BME280;11154;48.558;9.234;2024-02-23T05:56:15;95751.28;;;12.03;62.15
21980;BME280;11154;48.558;9.234;2024-02-23T05:58:17;95753.31;;;12.07;62.18
21980;BME280;11154;48.558;9.234;2024-02-23T06:00:19;95755.75;;;12.09;61.95
21980;BME280;11154;48.558;9.234;2024-02-23T06:02:22;95748.75;;;12.14;64.36
21980;BME280;11154;48.558;9.234;2024-02-23T06:04:23;95748.50;;;12.22;67.79
21980;BME280;11154;48.558;9.234;2024-02-23T06:06:26;95749.94;;;12.18;64.30
21980;BME280;11154;48.558;9.234;2024-02-23T06:08:28;95751.25;;;12.09;62.35
21980;BME280;11154;48.558;9.234;2024-02-23T06:10:30;95761.75;;;11.98;62.10
21980;BME280;11154;48.558;9.234;2024-02-23T06:12:31;95778.38;;;11.93;62.15
21980;BME280;11154;48.558;9.234;2024-02-23T06:14:33;95776.72;;;11.92;62.21
21980;BME280;11154;48.558;9.234;2024-02-23T06:16:33;95770.38;;;11.93;62.42
21980;BME280;11154;48.558;9.234;2024-02-23T06:18:35;95769.13;;;11.96;61.90
21980;BME280;11154;48.558;9.234;2024-02-23T06:20:38;95770.78;;;11.97;61.98
21980;BME280;11154;48.558;9.234;2024-02-23T06:22:41;95760.72;;;11.99;60.99
21980;BME280;11154;48.558;9.234;2024-02-23T06:24:43;95760.56;;;11.94;61.02
21980;BME280;11154;48.558;9.234;2024-02-23T06:26:44;95763.22;;;11.94;61.08
21980;BME280;11154;48.558;9.234;2024-02-23T06:28:49;95758.31;;;11.91;60.54
21980;BME280;11154;48.558;9.234;2024-02-23T06:30:49;95752.19;;;11.90;61.00
21980;BME280;11154;48.558;9.234;2024-02-23T06:32:51;95748.50;;;11.85;60.70
21980;BME280;11154;48.558;9.234;2024-02-23T06:34:53;95745.22;;;11.83;60.81
21980;BME280;11154;48.558;9.234;2024-02-23T06:36:54;95737.47;;;11.81;61.07
21980;BME280;11154;48.558;9.234;2024-02-23T06:38:57;95735.19;;;11.85;60.83
21980;BME280;11154;48.558;9.234;2024-02-23T06:40:59;95740.69;;;11.90;60.56
21980;BME280;11154;48.558;9.234;2024-02-23T06:43:00;95748.88;;;11.95;60.78
21980;BME280;11154;48.558;9.234;2024-02-23T06:45:01;95745.56;;;11.99;60.95
21980;BME280;11154;48.558;9.234;2024-02-23T06:47:03;95740.22;;;12.06;62.66
21980;BME280;11154;48.558;9.234;2024-02-23T06:49:05;95744.91;;;12.10;63.03
21980;BME280;11154;48.558;9.234;2024-02-23T06:51:06;95749.16;;;12.11;63.67
21980;BME280;11154;48.558;9.234;2024-02-23T06:53:09;95746.31;;;12.13;63.60
21980;BME280;11154;48.558;9.234;2024-02-23T06:55:11;95739.97;;;12.14;63.75
21980;BME280;11154;48.558;9.234;2024-02-23T06:57:13;95741.78;;;12.13;63.11
21980;BME280;11154;48.558;9.234;2024-02-23T06:59:15;95742.00;;;12.12;62.75
21980;BME280;11154;48.558;9.234;2024-02-23T07:01:16;95742.25;;;12.10;62.13
21980;BME280;11154;48.558;9.234;2024-02-23T07:03:18;95749.41;;;12.10;62.17
21980;BME280;11154;48.558;9.234;2024-02-23T07:05:19;95756.59;;;12.09;61.89
21980;BME280;11154;48.558;9.234;2024-02-23T07:07:21;95755.56;;;12.10;61.66
21980;BME280;11154;48.558;9.234;2024-02-23T07:09:22;95762.72;;;12.10;61.53
21980;BME280;11154;48.558;9.234;2024-02-23T07:11:25;95768.03;;;12.10;61.79
21980;BME280;11154;48.558;9.234;2024-02-23T07:13:27;95767.03;;;12.11;61.85
21980;BME280;11154;48.558;9.234;2024-02-23T07:15:30;95767.81;;;12.11;61.65
21980;BME280;11154;48.558;9.234;2024-02-23T07:17:33;95772.13;;;12.12;61.75
21980;BME280;11154;48.558;9.234;2024-02-23T07:19:34;95782.16;;;12.17;61.16
21980;BME280;11154;48.558;9.234;2024-02-23T07:21:36;95773.94;;;12.18;61.11
21980;BME280;11154;48.558;9.234;2024-02-23T07:23:37;95779.88;;;12.20;61.53
21980;BME280;11154;48.558;9.234;2024-02-23T07:25:39;95775.56;;;12.19;61.15
21980;BME280;11154;48.558;9.234;2024-02-23T07:27:42;95789.28;;;12.23;61.48
21980;BME280;11154;48.558;9.234;2024-02-23T07:29:44;95786.63;;;12.23;61.22
21980;BME280;11154;48.558;9.234;2024-02-23T07:31:45;95784.97;;;12.22;60.61
21980;BME280;11154;48.558;9.234;2024-02-23T07:33:47;95786.84;;;12.21;60.17
21980;BME280;11154;48.558;9.234;2024-02-23T07:35:49;95792.16;;;12.21;60.00
21980;BME280;11154;48.558;9.234;2024-02-23T07:37:50;95799.13;;;12.22;59.15
21980;BME280;11154;48.558;9.234;2024-02-23T07:39:52;95796.47;;;12.22;59.39
21980;BME280;11154;48.558;9.234;2024-02-23T07:41:53;95799.94;;;12.23;58.92
21980;BME280;11154;48.558;9.234;2024-02-23T07:43:56;95799.53;;;12.25;59.10
21980;BME280;11154;48.558;9.234;2024-02-23T07:45:57;95794.19;;;12.25;58.64
21980;BME280;11154;48.558;9.234;2024-02-23T07:47:59;95805.97;;;12.42;57.87
21980;BME280;11154;48.558;9.234;2024-02-23T07:50:00;95799.75;;;12.55;57.72
21980;BME280;11154;48.558;9.234;2024-02-23T07:52:01;95795.47;;;12.54;57.40
21980;BME280;11154;48.558;9.234;2024-02-23T07:54:03;95790.53;;;12.51;56.88
21980;BME280;11154;48.558;9.234;2024-02-23T07:56:07;95787.50;;;12.47;58.32
21980;BME280;11154;48.558;9.234;2024-02-23T07:58:09;95795.09;;;12.44;59.34
21980;BME280;11154;48.558;9.234;2024-02-23T08:00:12;95786.28;;;12.43;59.37
21980;BME280;11154;48.558;9.234;2024-02-23T08:02:14;95773.38;;;12.40;59.10
21980;BME280;11154;48.558;9.234;2024-02-23T08:04:16;95779.00;;;12.32;58.00
21980;BME280;11154;48.558;9.234;2024-02-23T08:06:18;95773.47;;;12.27;58.22
21980;BME280;11154;48.558;9.234;2024-02-23T08:08:18;95772.88;;;12.25;58.29
21980;BME280;11154;48.558;9.234;2024-02-23T08:10:22;95772.88;;;12.25;59.03
21980;BME280;11154;48.558;9.234;2024-02-23T08:12:26;95774.94;;;12.23;58.50
21980;BME280;11154;48.558;9.234;2024-02-23T08:14:28;95778.41;;;12.24;58.31
21980;BME280;11154;48.558;9.234;2024-02-23T08:16:34;95785.38;;;12.25;58.49
21980;BME280;11154;48.558;9.234;2024-02-23T08:18:36;95787.22;;;12.24;58.94
21980;BME280;11154;48.558;9.234;2024-02-23T08:20:37;95795.84;;;12.26;59.77
21980;BME280;11154;48.558;9.234;2024-02-23T08:22:38;95795.84;;;12.26;58.63
21980;BME280;11154;48.558;9.234;2024-02-23T08:24:40;95797.91;;;12.24;58.49
21980;BME280;11154;48.558;9.234;2024-02-23T08:26:41;95804.84;;;12.25;58.44
21980;BME280;11154;48.558;9.234;2024-02-23T08:28:43;95805.66;;;12.26;58.84
21980;BME280;11154;48.558;9.234;2024-02-23T08:30:44;95806.06;;;12.29;58.65
21980;BME280;11154;48.558;9.234;2024-02-23T08:32:47;95801.91;;;12.33;58.67
21980;BME280;11154;48.558;9.234;2024-02-23T08:34:49;95805.19;;;12.35;58.37
21980;BME280;11154;48.558;9.234;2024-02-23T08:36:53;95812.78;;;12.38;58.94
21980;BME280;11154;48.558;9.234;2024-02-23T08:38:54;95804.78;;;12.38;58.40
21980;BME280;11154;48.558;9.234;2024-02-23T08:40:56;95805.97;;;12.42;58.91
21980;BME280;11154;48.558;9.234;2024-02-23T08:42:59;95799.00;;;12.41;59.05
21980;BME280;11154;48.558;9.234;2024-02-23T08:45:00;95799.41;;;12.45;59.30
21980;BME280;11154;48.558;9.234;2024-02-23T08:47:02;95800.81;;;12.47;59.58
21980;BME280;11154;48.558;9.234;2024-02-23T08:49:05;95794.47;;;12.48;59.00
21980;BME280;11154;48.558;9.234;2024-02-23T08:51:07;95796.72;;;12.51;59.37
21980;BME280;11154;48.558;9.234;2024-02-23T08:53:08;95795.66;;;12.52;60.04
21980;BME280;11154;48.558;9.234;2024-02-23T08:55:09;95798.13;;;12.54;60.84
21980;BME280;11154;48.558;9.234;2024-02-23T08:57:11;95798.53;;;12.51;58.98
21980;BME280;11154;48.558;9.234;2024-02-23T08:59:17;95791.16;;;12.53;58.38
21980;BME280;11154;48.558;9.234;2024-02-23T09:01:19;95799.94;;;12.53;55.44
21980;BME280;11154;48.558;9.234;2024-02-23T09:03:21;95784.56;;;12.55;55.60
21980;BME280;11154;48.558;9.234;2024-02-23T09:05:24;95795.22;;;12.55;55.04
21980;BME280;11154;48.558;9.234;2024-02-23T09:07:25;95803.22;;;12.55;54.29
21980;BME280;11154;48.558;9.234;2024-02-23T09:09:26;95793.59;;;12.54;54.38
21980;BME280;11154;48.558;9.234;2024-02-23T09:11:28;95797.28;;;12.53;53.97
21980;BME280;11154;48.558;9.234;2024-02-23T09:13:29;95797.28;;;12.53;53.67
21980;BME280;11154;48.558;9.234;2024-02-23T09:15:31;95787.00;;;12.57;54.74
21980;BME280;11154;48.558;9.234;2024-02-23T09:17:33;95791.09;;;12.59;54.44
21980;BME280;11154;48.558;9.234;2024-02-23T09:19:34;95789.84;;;12.62;53.61
21980;BME280;11154;48.558;9.234;2024-02-23T09:21:38;95798.06;;;12.60;53.36
21980;BME280;11154;48.558;9.234;2024-02-23T09:23:39;95794.38;;;12.61;53.82
21980;BME280;11154;48.558;9.234;2024-02-23T09:25:41;95804.63;;;12.64;53.14
21980;BME280;11154;48.558;9.234;2024-02-23T09:27:43;95799.28;;;12.64;52.46
21980;BME280;11154;48.558;9.234;2024-02-23T09:29:43;95802.16;;;12.63;52.23
21980;BME280;11154;48.558;9.234;2024-02-23T09:31:45;95803.41;;;12.60;51.42
21980;BME280;11154;48.558;9.234;2024-02-23T09:33:47;95803.00;;;12.57;51.02
21980;BME280;11154;48.558;9.234;2024-02-23T09:35:49;95816.16;;;12.58;51.58
21980;BME280;11154;48.558;9.234;2024-02-23T09:37:52;95811.84;;;12.57;50.84
21980;BME280;11154;48.558;9.234;2024-02-23T09:39:53;95809.59;;;12.54;50.15
21980;BME280;11154;48.558;9.234;2024-02-23T09:41:54;95812.03;;;12.56;50.92
21980;BME280;11154;48.558;9.234;2024-02-23T09:43:58;95808.97;;;12.52;49.72
21980;BME280;11154;48.558;9.234;2024-02-23T09:46:00;95813.66;;;12.57;50.08
21980;BME280;11154;48.558;9.234;2024-02-23T09:48:02;95817.56;;;12.61;50.92
21980;BME280;11154;48.558;9.234;2024-02-23T09:50:05;95818.97;;;12.63;50.79
21980;BME280;11154;48.558;9.234;2024-02-23T09:52:08;95811.38;;;12.67;50.67
21980;BME280;11154;48.558;9.234;2024-02-23T09:54:11;95815.38;;;12.76;52.00
21980;BME280;11154;48.558;9.234;2024-02-23T09:56:13;95813.09;;;12.79;50.75
21980;BME280;11154;48.558;9.234;2024-02-23T09:58:17;95811.03;;;12.81;50.71
21980;BME280;11154;48.558;9.234;2024-02-23T10:00:21;95806.50;;;12.82;50.91
21980;BME280;11154;48.558;9.234;2024-02-23T10:02:23;95809.56;;;12.85;50.93
21980;BME280;11154;48.558;9.234;2024-02-23T10:04:26;95813.88;;;12.86;51.01
21980;BME280;11154;48.558;9.234;2024-02-23T10:06:29;95814.28;;;12.90;50.97
21980;BME280;11154;48.558;9.234;2024-02-23T10:08:31;95824.16;;;12.89;50.72
21980;BME280;11154;48.558;9.234;2024-02-23T10:10:37;95821.03;;;12.92;50.17
21980;BME280;11154;48.558;9.234;2024-02-23T10:12:38;95831.06;;;12.97;49.44
21980;BME280;11154;48.558;9.234;2024-02-23T10:14:41;95833.09;;;13.01;50.41
21980;BME280;11154;48.558;9.234;2024-02-23T10:16:42;95832.47;;;12.99;48.18
21980;BME280;11154;48.558;9.234;2024-02-23T10:18:44;95826.13;;;13.00;48.96
21980;BME280;11154;48.558;9.234;2024-02-23T10:20:47;95833.69;;;13.03;48.77
21980;BME280;11154;48.558;9.234;2024-02-23T10:22:50;95831.03;;;13.03;47.45
21980;BME280;11154;48.558;9.234;2024-02-23T10:24:54;95825.88;;;13.01;48.67
21980;BME280;11154;48.558;9.234;2024-02-23T10:26:57;95821.38;;;13.02;48.36
21980;BME280;11154;48.558;9.234;2024-02-23T10:28:58;95816.69;;;13.22;49.83
21980;BME280;11154;48.558;9.234;2024-02-23T10:30:59;95819.94;;;13.24;47.60
21980;BME280;11154;48.558;9.234;2024-02-23T10:33:02;95819.69;;;13.32;47.41
21980;BME280;11154;48.558;9.234;2024-02-23T10:35:10;95821.75;;;13.30;46.17
21980;BME280;11154;48.558;9.234;2024-02-23T10:37:11;95816.84;;;13.27;47.27
21980;BME280;11154;48.558;9.234;2024-02-23T10:39:16;95822.56;;;13.30;48.11
21980;BME280;11154;48.558;9.234;2024-02-23T10:41:19;95827.06;;;13.30;48.72
21980;BME280;11154;48.558;9.234;2024-02-23T10:43:29;95827.06;;;13.30;48.42
21980;BME280;11154;48.558;9.234;2024-02-23T10:45:31;95825.25;;;13.30;48.91
21980;BME280;11154;48.558;9.234;2024-02-23T10:47:33;95818.78;;;13.38;46.89